Time;durP1;ratioP1;P1;durP2;ratioP2;P2;SDS_P1;SDS_P2;PMS_P1;PMS_P2;Temp;Humidity;BMP_temperature;BMP_pressure;BME280_temperature;BME280_humidity;BME280_pressure;Samples;Min_cycle;Max_cycle;Signal;HPM_P1;HPM_P2
2023/01/11 00:00:57;;;;;;;;;;;;;;;20.08;39.93;100494.80;106027;1285;61291;-84
2023/01/11 00:03:23;;;;;;;;;;;;;;;20.09;39.89;100499.58;106070;1285;61273;-84
2023/01/11 00:05:48;;;;;;;;;;;;;;;20.08;39.94;100505.86;106152;1284;61239;-84
2023/01/11 00:08:14;;;;;;;;;;;;;;;20.10;39.95;100511.50;106065;1285;61226;-85
2023/01/11 00:10:39;;;;;;;;;;;;;;;20.10;40.05;100511.11;106124;1284;74643;-84
2023/01/11 00:13:05;;;;;;;;;;;;;;;20.10;39.77;100516.27;105957;1285;61278;-84
2023/01/11 00:15:30;;;;;;;;;;;;;;;20.11;39.98;100525.35;105966;1286;59507;-84
2023/01/11 00:17:56;;;;;;;;;;;;;;;20.12;39.97;100528.00;105746;1285;61296;-84
2023/01/11 00:20:22;;;;;;;;;;;;;;;20.12;39.85;100529.40;105950;1289;61261;-83
2023/01/11 00:22:48;;;;;;;;;;;;;;;20.12;39.88;100532.08;105961;1285;61237;-84
2023/01/11 00:25:16;;;;;;;;;;;;;;;20.12;39.93;100528.35;105926;1285;61219;-84
2023/01/11 00:27:50;;;;;;;;;;;;;;;20.11;39.89;100515.88;105707;1285;61296;-84
2023/01/11 00:30:16;;;;;;;;;;;;;;;20.11;39.83;100505.33;105918;1285;72252;-84
2023/01/11 00:32:44;;;;;;;;;;;;;;;20.11;39.93;100499.98;105719;1290;60390;-84
2023/01/11 00:35:11;;;;;;;;;;;;;;;20.11;39.77;100502.86;105751;1289;61266;-84
2023/01/11 00:37:37;;;;;;;;;;;;;;;20.11;39.93;100504.08;105942;1290;61305;-83
2023/01/11 00:40:03;;;;;;;;;;;;;;;20.11;39.74;100513.02;105720;1285;61377;-83
2023/01/11 00:48:04;;;;;;;;;;;;;;;20.11;39.72;100523.93;105950;1284;61394;-83
2023/01/11 00:50:31;;;;;;;;;;;;;;;20.11;39.67;100534.45;105964;1289;72503;-84
2023/01/11 00:52:57;;;;;;;;;;;;;;;20.11;39.65;100545.52;105914;1287;74425;-84
2023/01/11 00:55:46;;;;;;;;;;;;;;;20.11;39.79;100542.66;105953;1290;61301;-84
2023/01/11 00:58:11;;;;;;;;;;;;;;;20.12;39.66;100544.59;105302;1292;61841;-84
2023/01/11 01:00:38;;;;;;;;;;;;;;;20.12;39.64;100539.23;105120;1293;61358;-83
2023/01/11 01:03:03;;;;;;;;;;;;;;;20.12;39.75;100547.09;105284;1294;61374;-83
2023/01/11 01:05:29;;;;;;;;;;;;;;;20.12;39.59;100553.52;105165;1294;61427;-83
2023/01/11 01:07:55;;;;;;;;;;;;;;;20.12;39.68;100556.02;105094;1294;61255;-83
2023/01/11 01:10:20;;;;;;;;;;;;;;;20.12;39.57;100550.66;105155;1297;59842;-83
2023/01/11 01:15:30;;;;;;;;;;;;;;;20.13;39.53;100557.24;105268;1294;74523;-84
2023/01/11 01:17:58;;;;;;;;;;;;;;;20.13;39.59;100566.17;105150;1297;61277;-83
2023/01/11 01:20:24;;;;;;;;;;;;;;;20.13;39.52;100569.55;105186;1292;61367;-83
2023/01/11 01:22:49;;;;;;;;;;;;;;;20.13;39.56;100584.36;105164;1294;61796;-84
2023/01/11 01:25:15;;;;;;;;;;;;;;;20.13;39.46;100595.27;105155;1292;61313;-84
2023/01/11 01:27:40;;;;;;;;;;;;;;;20.13;39.52;100601.88;105204;1293;59347;-84
2023/01/11 01:30:08;;;;;;;;;;;;;;;20.13;39.54;100603.34;105187;1294;59921;-84
2023/01/11 01:32:33;;;;;;;;;;;;;;;20.13;39.54;100606.34;105160;1297;61452;-84
2023/01/11 01:34:59;;;;;;;;;;;;;;;20.13;39.48;100596.66;105306;1286;60049;-83
2023/01/11 01:37:27;;;;;;;;;;;;;;;20.13;39.57;100579.37;105888;1287;75544;-83
2023/01/11 01:39:53;;;;;;;;;;;;;;;20.13;39.58;100572.43;105743;1288;61181;-84
2023/01/11 01:42:19;;;;;;;;;;;;;;;20.13;39.44;100575.11;105945;1286;61241;-84
2023/01/11 01:44:54;;;;;;;;;;;;;;;20.13;39.45;100572.05;105709;1290;61261;-84
2023/01/11 01:47:28;;;;;;;;;;;;;;;20.13;39.49;100561.48;105961;1285;75554;-84
2023/01/11 01:49:55;;;;;;;;;;;;;;;20.12;39.34;100561.19;105987;1284;60095;-84
2023/01/11 01:52:27;;;;;;;;;;;;;;;20.13;39.40;100558.30;106000;1286;61116;-84
2023/01/11 01:54:53;;;;;;;;;;;;;;;20.12;39.35;100560.11;105943;1287;72405;-85
2023/01/11 01:57:21;;;;;;;;;;;;;;;20.13;39.36;100562.00;105721;1286;59333;-84
2023/01/11 01:59:50;;;;;;;;;;;;;;;20.13;39.26;100556.84;105949;1289;62721;-84
2023/01/11 02:02:16;;;;;;;;;;;;;;;20.13;39.23;100553.98;105933;1284;61177;-84
2023/01/11 02:04:41;;;;;;;;;;;;;;;20.13;39.27;100555.95;105950;1285;61255;-85
2023/01/11 02:07:17;;;;;;;;;;;;;;;20.13;39.25;100555.02;105951;1285;61239;-84
2023/01/11 02:09:45;;;;;;;;;;;;;;;20.13;39.40;100553.61;105979;1289;61373;-84
2023/01/11 02:12:11;;;;;;;;;;;;;;;20.14;39.19;100548.56;105925;1285;61079;-84
2023/01/11 02:14:36;;;;;;;;;;;;;;;20.14;39.32;100551.42;105940;1291;61267;-83
2023/01/11 02:17:02;;;;;;;;;;;;;;;20.14;39.28;100550.67;105989;1285;61280;-84
2023/01/11 02:19:40;;;;;;;;;;;;;;;20.14;39.12;100554.98;105977;1284;61258;-84
2023/01/11 02:22:25;;;;;;;;;;;;;;;20.15;39.10;100555.13;106063;1285;61263;-84
2023/01/11 02:25:02;;;;;;;;;;;;;;;20.14;39.13;100561.38;106002;1286;73417;-84
2023/01/11 02:27:47;;;;;;;;;;;;;;;20.15;39.30;100561.76;106010;1286;74220;-84
2023/01/11 02:30:31;;;;;;;;;;;;;;;20.15;39.15;100563.33;106079;1285;61257;-84
2023/01/11 02:32:57;;;;;;;;;;;;;;;20.15;39.29;100562.42;106163;1284;61189;-83
2023/01/11 02:35:31;;;;;;;;;;;;;;;20.15;39.37;100567.21;106238;1288;61360;-83
2023/01/11 02:38:00;;;;;;;;;;;;;;;20.16;39.20;100566.80;106841;1286;74539;-84
2023/01/11 02:40:35;;;;;;;;;;;;;;;20.17;39.35;100569.60;106168;1289;61258;-83
2023/01/11 02:46:10;;;;;;;;;;;;;;;20.18;39.42;100574.52;105966;1289;72427;-83
2023/01/11 02:48:46;;;;;;;;;;;;;;;20.19;39.43;100580.55;106008;1288;74489;-83
2023/01/11 02:51:14;;;;;;;;;;;;;;;20.19;39.48;100582.81;105936;1285;60911;-83
2023/01/11 02:53:52;;;;;;;;;;;;;;;20.20;39.38;100586.40;105967;1286;60231;-83
2023/01/11 02:56:22;;;;;;;;;;;;;;;20.20;39.35;100599.58;106007;1286;73445;-83
2023/01/11 02:58:48;;;;;;;;;;;;;;;20.20;39.37;100595.83;105744;1284;74608;-83
2023/01/11 03:01:14;;;;;;;;;;;;;;;20.20;39.26;100591.52;105916;1286;61235;-84
2023/01/11 03:03:40;;;;;;;;;;;;;;;20.21;39.40;100581.31;105922;1285;61277;-83
2023/01/11 03:06:19;;;;;;;;;;;;;;;20.21;39.43;100577.91;105678;1287;61392;-82
2023/01/11 03:09:01;;;;;;;;;;;;;;;20.21;39.52;100576.13;105965;1286;75422;-83
2023/01/11 03:14:27;;;;;;;;;;;;;;;20.21;39.47;100566.11;105970;1286;61258;-83
2023/01/11 03:16:56;;;;;;;;;;;;;;;20.21;39.50;100571.45;105907;1288;73263;-83
2023/01/11 03:19:25;;;;;;;;;;;;;;;20.21;39.48;100570.20;105703;1287;74473;-83
2023/01/11 03:21:56;;;;;;;;;;;;;;;20.21;39.48;100568.76;106060;1285;61149;-83
2023/01/11 03:24:26;;;;;;;;;;;;;;;20.22;39.47;100569.45;105971;1285;61352;-83
2023/01/11 03:26:54;;;;;;;;;;;;;;;20.21;39.57;100569.46;105749;1285;73468;-83
2023/01/11 03:29:39;;;;;;;;;;;;;;;20.22;39.60;100563.14;105723;1290;74493;-84
2023/01/11 03:32:31;;;;;;;;;;;;;;;20.22;39.56;100555.98;105950;1285;61229;-83
2023/01/11 03:35:01;;;;;;;;;;;;;;;20.23;39.56;100549.52;105287;1292;61089;-83
2023/01/11 03:37:41;;;;;;;;;;;;;;;20.23;39.53;100553.06;105183;1293;72239;-83
2023/01/11 03:40:13;;;;;;;;;;;;;;;20.24;39.66;100555.83;105156;1291;74405;-83
2023/01/11 03:43:09;;;;;;;;;;;;;;;20.24;39.60;100559.59;105199;1298;61299;-83
2023/01/11 03:45:26;;;;;;;;;;;;;;;20.24;39.72;100552.61;105182;1292;61313;-83
2023/01/11 03:47:51;;;;;;;;;;;;;;;20.25;39.61;100558.13;105170;1298;61436;-83
2023/01/11 03:50:17;;;;;;;;;;;;;;;20.25;39.69;100565.08;105174;1297;61379;-83
2023/01/11 03:52:43;;;;;;;;;;;;;;;20.25;39.73;100572.92;105150;1294;59885;-83
2023/01/11 03:55:08;;;;;;;;;;;;;;;20.26;39.59;100577.01;105181;1292;61229;-83
2023/01/11 03:57:35;;;;;;;;;;;;;;;20.26;39.68;100590.01;105327;1295;61281;-83
2023/01/11 04:00:00;;;;;;;;;;;;;;;20.27;39.64;100598.92;105178;1293;72558;-84
2023/01/11 04:02:27;;;;;;;;;;;;;;;20.26;39.72;100598.22;105265;1293;61380;-83
2023/01/11 04:05:19;;;;;;;;;;;;;;;20.27;39.74;100610.70;105320;1291;61434;-83
2023/01/11 04:07:45;;;;;;;;;;;;;;;20.28;39.64;100614.95;104819;1299;61245;-84
2023/01/11 04:10:10;;;;;;;;;;;;;;;20.28;39.77;100610.63;104731;1297;61442;-83
2023/01/11 04:12:36;;;;;;;;;;;;;;;20.28;39.68;100612.98;104889;1298;61283;-83
2023/01/11 04:15:04;;;;;;;;;;;;;;;20.29;39.77;100613.99;105030;1293;61385;-83
2023/01/11 04:17:30;;;;;;;;;;;;;;;20.28;39.86;100615.63;105024;1294;60073;-83
2023/01/11 04:19:55;;;;;;;;;;;;;;;20.29;39.86;100622.40;105099;1298;61284;-83
2023/01/11 04:22:21;;;;;;;;;;;;;;;20.29;39.89;100630.79;105014;1294;59615;-83
2023/01/11 04:24:46;;;;;;;;;;;;;;;20.29;39.84;100637.05;105062;1298;61291;-83
2023/01/11 04:27:12;;;;;;;;;;;;;;;20.29;39.78;100642.00;105032;1295;61224;-84
2023/01/11 04:29:38;;;;;;;;;;;;;;;20.30;39.90;100643.95;105092;1293;61318;-83
2023/01/11 04:32:03;;;;;;;;;;;;;;;20.30;39.84;100638.55;104996;1294;60070;-82
2023/01/11 04:34:29;;;;;;;;;;;;;;;20.30;39.88;100641.74;105007;1293;61374;-82
2023/01/11 04:36:54;;;;;;;;;;;;;;;20.30;39.86;100639.79;105086;1293;61333;-82
2023/01/11 04:39:20;;;;;;;;;;;;;;;20.31;39.86;100637.98;105043;1296;61175;-82
2023/01/11 04:44:29;;;;;;;;;;;;;;;20.31;39.86;100629.01;105245;1286;72457;-84
2023/01/11 04:46:55;;;;;;;;;;;;;;;20.31;39.78;100634.72;105963;1285;61377;-83
2023/01/11 04:49:21;;;;;;;;;;;;;;;20.31;39.97;100636.35;105967;1285;61355;-83
2023/01/11 04:51:47;;;;;;;;;;;;;;;20.31;39.90;100638.67;105778;1284;61290;-83
2023/01/11 04:54:14;;;;;;;;;;;;;;;20.30;39.94;100630.13;105768;1285;61402;-83
2023/01/11 04:56:40;;;;;;;;;;;;;;;20.30;39.97;100637.88;106011;1285;61323;-83
2023/01/11 04:59:06;;;;;;;;;;;;;;;20.31;39.98;100643.70;106107;1285;61261;-83
2023/01/11 05:01:32;;;;;;;;;;;;;;;20.30;39.99;100651.61;106180;1286;59957;-84
2023/01/11 05:03:57;;;;;;;;;;;;;;;20.31;40.02;100651.15;106005;1285;61317;-84
2023/01/11 05:06:23;;;;;;;;;;;;;;;20.32;40.03;100654.88;106072;1284;72421;-84
2023/01/11 05:08:48;;;;;;;;;;;;;;;20.33;39.92;100658.15;105954;1285;59378;-83
2023/01/11 05:11:15;;;;;;;;;;;;;;;20.34;39.99;100667.24;105928;1285;61387;-84
2023/01/11 05:13:41;;;;;;;;;;;;;;;20.35;39.92;100672.92;105979;1285;61298;-84
2023/01/11 05:16:17;;;;;;;;;;;;;;;20.35;40.04;100674.34;105983;1285;60081;-84
2023/01/11 05:18:52;;;;;;;;;;;;;;;20.36;39.99;100677.83;105985;1285;74300;-84
2023/01/11 05:21:20;;;;;;;;;;;;;;;20.36;39.92;100677.64;105962;1285;61125;-84
2023/01/11 05:23:45;;;;;;;;;;;;;;;20.36;40.03;100683.72;105932;1284;61336;-83
2023/01/11 05:26:16;;;;;;;;;;;;;;;20.36;40.03;100691.77;106023;1285;61666;-84
2023/01/11 05:28:43;;;;;;;;;;;;;;;20.34;40.02;100693.70;105958;1285;74516;-84
2023/01/11 05:31:08;;;;;;;;;;;;;;;20.31;40.10;100698.56;105733;1285;61733;-83
2023/01/11 05:33:34;;;;;;;;;;;;;;;20.28;40.12;100700.93;106000;1284;61240;-83
2023/01/11 05:36:02;;;;;;;;;;;;;;;20.26;40.05;100701.94;106016;1284;60375;-83
2023/01/11 05:38:28;;;;;;;;;;;;;;;20.24;40.02;100705.59;106025;1285;60111;-84
2023/01/11 05:40:54;;;;;;;;;;;;;;;20.22;40.25;100712.74;105880;1285;61248;-83
2023/01/11 05:43:20;;;;;;;;;;;;;;;20.18;40.33;100711.75;105872;1284;60102;-84
2023/01/11 05:45:45;;;;;;;;;;;;;;;20.14;40.28;100717.02;106118;1284;60272;-84
2023/01/11 05:48:12;;;;;;;;;;;;;;;20.07;40.28;100726.79;105964;1289;61387;-84
2023/01/11 05:50:38;;;;;;;;;;;;;;;19.93;40.20;100730.78;106042;1285;61039;-84
2023/01/11 05:53:04;;;;;;;;;;;;;;;19.70;40.25;100737.61;106182;1285;60995;-84
2023/01/11 05:55:29;;;;;;;;;;;;;;;19.49;40.66;100743.84;106162;1285;60049;-84
2023/01/11 05:57:55;;;;;;;;;;;;;;;19.34;40.79;100736.46;106257;1283;61378;-83
2023/01/11 06:00:21;;;;;;;;;;;;;;;19.26;41.00;100737.64;106113;1285;61293;-83
2023/01/11 06:02:47;;;;;;;;;;;;;;;19.25;41.07;100745.18;106110;1285;60292;-83
2023/01/11 06:05:14;;;;;;;;;;;;;;;19.09;40.96;100747.27;106037;1285;61239;-83
2023/01/11 06:07:39;;;;;;;;;;;;;;;18.97;41.25;100758.58;106210;1284;61311;-83
2023/01/11 06:10:05;;;;;;;;;;;;;;;18.92;41.42;100758.00;106103;1284;59369;-82
2023/01/11 06:12:32;;;;;;;;;;;;;;;18.99;41.78;100751.46;106170;1284;61219;-81
2023/01/11 06:14:57;;;;;;;;;;;;;;;19.11;41.86;100761.42;105986;1283;61084;-83
2023/01/11 06:17:23;;;;;;;;;;;;;;;19.24;41.68;100770.24;106013;1285;61260;-83
2023/01/11 06:19:49;;;;;;;;;;;;;;;19.37;41.85;100771.90;106160;1285;59444;-83
2023/01/11 06:22:14;;;;;;;;;;;;;;;19.49;41.82;100780.02;105921;1285;60029;-83
2023/01/11 06:24:40;;;;;;;;;;;;;;;19.60;41.71;100785.44;106054;1285;59262;-84
2023/01/11 06:27:05;;;;;;;;;;;;;;;19.69;41.69;100790.58;105916;1285;61319;-84
2023/01/11 06:29:31;;;;;;;;;;;;;;;19.77;41.84;100793.80;105930;1290;61365;-83
2023/01/11 06:31:57;;;;;;;;;;;;;;;19.85;41.86;100793.67;106061;1284;60892;-83
2023/01/11 06:34:23;;;;;;;;;;;;;;;19.92;41.79;100794.60;105876;1288;74496;-84
2023/01/11 06:36:48;;;;;;;;;;;;;;;19.99;41.77;100793.98;105902;1285;61236;-84
2023/01/11 06:39:14;;;;;;;;;;;;;;;20.05;41.65;100794.61;105892;1285;59421;-84
2023/01/11 06:41:39;;;;;;;;;;;;;;;20.11;41.69;100792.64;105780;1284;61366;-84
2023/01/11 06:44:05;;;;;;;;;;;;;;;20.15;41.75;100798.27;105954;1285;61216;-85
2023/01/11 06:46:30;;;;;;;;;;;;;;;20.18;41.78;100805.89;105995;1284;61382;-84
2023/01/11 06:48:56;;;;;;;;;;;;;;;20.22;41.70;100814.39;105864;1285;61292;-84
2023/01/11 06:51:22;;;;;;;;;;;;;;;20.28;41.79;100820.13;106017;1284;59343;-84
2023/01/11 06:53:47;;;;;;;;;;;;;;;20.31;41.68;100822.39;105986;1285;61391;-84
2023/01/11 06:56:13;;;;;;;;;;;;;;;20.34;41.71;100822.04;105961;1285;62179;-85
2023/01/11 06:58:39;;;;;;;;;;;;;;;20.32;41.67;100826.95;106019;1284;61233;-84
2023/01/11 07:01:04;;;;;;;;;;;;;;;20.33;42.01;100825.81;105983;1285;59808;-83
2023/01/11 07:03:30;;;;;;;;;;;;;;;20.36;41.90;100830.85;105878;1285;60147;-83
2023/01/11 07:05:56;;;;;;;;;;;;;;;20.37;41.94;100834.52;105889;1285;61311;-83
2023/01/11 07:08:23;;;;;;;;;;;;;;;20.38;42.10;100833.91;105879;1289;61030;-83
2023/01/11 07:10:48;;;;;;;;;;;;;;;20.39;42.10;100835.21;105871;1289;59639;-83
2023/01/11 07:13:17;;;;;;;;;;;;;;;20.42;42.03;100839.70;105872;1283;61369;-83
2023/01/11 07:15:43;;;;;;;;;;;;;;;20.46;42.20;100840.36;105882;1285;60687;-83
2023/01/11 07:18:11;;;;;;;;;;;;;;;20.49;42.24;100844.23;105871;1285;61617;-83
2023/01/11 07:20:37;;;;;;;;;;;;;;;20.52;42.35;100850.84;105908;1285;61175;-84
2023/01/11 07:23:02;;;;;;;;;;;;;;;20.54;42.10;100848.73;105917;1285;61295;-82
2023/01/11 07:25:28;;;;;;;;;;;;;;;20.57;42.26;100854.41;105906;1285;61177;-83
2023/01/11 07:27:57;;;;;;;;;;;;;;;20.60;42.27;100858.48;105905;1289;61675;-83
2023/01/11 07:30:26;;;;;;;;;;;;;;;20.62;42.29;100862.30;106051;1285;60745;-83
2023/01/11 07:32:52;;;;;;;;;;;;;;;20.63;42.26;100866.19;105815;1285;61351;-83
2023/01/11 07:35:17;;;;;;;;;;;;;;;20.63;42.40;100868.70;105766;1286;61894;-83
2023/01/11 07:37:44;;;;;;;;;;;;;;;20.64;42.30;100868.79;105911;1286;61355;-83
2023/01/11 07:40:10;;;;;;;;;;;;;;;20.66;42.42;100874.38;106281;1285;59418;-84
2023/01/11 07:45:20;;;;;;;;;;;;;;;20.70;42.45;100881.48;105911;1285;73918;-84
2023/01/11 07:47:48;;;;;;;;;;;;;;;20.71;42.38;100888.73;105890;1285;60354;-84
2023/01/11 07:50:14;;;;;;;;;;;;;;;20.72;42.54;100895.11;105898;1285;62725;-84
2023/01/11 07:52:45;;;;;;;;;;;;;;;20.73;42.58;100898.97;105805;1285;61968;-85
2023/01/11 07:55:11;;;;;;;;;;;;;;;20.69;42.48;100906.02;106037;1284;73378;-81
2023/01/11 07:57:36;;;;;;;;;;;;;;;20.60;42.60;100905.88;106049;1285;61259;-82
2023/01/11 08:00:02;;;;;;;;;;;;;;;20.59;42.62;100907.90;105985;1285;61495;-82
2023/01/11 08:02:28;;;;;;;;;;;;;;;20.62;42.77;100911.89;106075;1284;60231;-83
2023/01/11 08:04:53;;;;;;;;;;;;;;;20.64;42.84;100916.32;105913;1285;59951;-82
2023/01/11 08:07:19;;;;;;;;;;;;;;;20.67;42.82;100923.14;105903;1285;59243;-85
2023/01/11 08:09:44;;;;;;;;;;;;;;;20.70;43.17;100930.64;105979;1284;60514;-83
2023/01/11 08:14:54;;;;;;;;;;;;;;;20.74;43.28;100933.96;105837;1285;60220;-82
2023/01/11 08:17:19;;;;;;;;;;;;;;;20.75;43.26;100939.98;105845;1285;59581;-82
2023/01/11 08:19:46;;;;;;;;;;;;;;;20.77;43.48;100943.77;105880;1285;61148;-82
2023/01/11 08:22:12;;;;;;;;;;;;;;;20.79;43.40;100949.70;105839;1284;61360;-82
2023/01/11 08:24:37;;;;;;;;;;;;;;;20.82;43.44;100947.17;105897;1284;61231;-83
2023/01/11 08:27:03;;;;;;;;;;;;;;;20.85;43.42;100963.05;105890;1285;59771;-83
2023/01/11 08:29:28;;;;;;;;;;;;;;;20.86;43.34;100959.94;105052;1285;881064;-83
2023/01/11 08:31:56;;;;;;;;;;;;;;;20.88;43.40;100967.90;105930;1284;61343;-83
2023/01/11 08:34:22;;;;;;;;;;;;;;;20.90;43.21;100972.20;106025;1285;59280;-83
2023/01/11 08:36:47;;;;;;;;;;;;;;;20.91;43.36;100977.48;105988;1284;61210;-84
2023/01/11 08:39:13;;;;;;;;;;;;;;;20.93;43.38;100982.73;105830;1285;61766;-84
2023/01/11 08:41:38;;;;;;;;;;;;;;;20.95;43.32;100988.16;105974;1285;61040;-83
2023/01/11 08:44:05;;;;;;;;;;;;;;;20.96;43.36;100994.73;105875;1285;61378;-82
2023/01/11 08:46:32;;;;;;;;;;;;;;;20.97;43.20;100996.84;105931;1285;62502;-83
2023/01/11 08:48:59;;;;;;;;;;;;;;;20.97;43.28;101002.16;105973;1285;60967;-83
2023/01/11 08:51:25;;;;;;;;;;;;;;;20.98;43.43;101003.74;105883;1284;61200;-83
2023/01/11 08:53:50;;;;;;;;;;;;;;;20.97;43.32;101009.67;105968;1285;61992;-83
2023/01/11 08:56:16;;;;;;;;;;;;;;;20.97;43.29;101020.05;105989;1284;61202;-83
2023/01/11 08:58:41;;;;;;;;;;;;;;;20.98;43.30;101027.16;105978;1284;59216;-84
2023/01/11 09:01:08;;;;;;;;;;;;;;;20.98;43.30;101031.06;105916;1285;62715;-83
2023/01/11 09:03:35;;;;;;;;;;;;;;;20.99;43.29;101020.30;105799;1285;59154;-84
2023/01/11 09:06:01;;;;;;;;;;;;;;;20.98;43.36;101019.45;106445;1284;59349;-83
2023/01/11 09:08:30;;;;;;;;;;;;;;;20.97;43.38;101018.84;106460;1284;59460;-83
2023/01/11 09:10:58;;;;;;;;;;;;;;;20.96;43.34;101012.64;106337;1285;59386;-83
2023/01/11 09:13:23;;;;;;;;;;;;;;;20.97;43.53;101014.91;106252;1284;74443;-84
2023/01/11 09:15:50;;;;;;;;;;;;;;;20.96;43.50;101024.27;106267;1285;58401;-84
2023/01/11 09:18:17;;;;;;;;;;;;;;;20.95;43.64;101028.79;106480;1285;60535;-84
2023/01/11 09:20:43;;;;;;;;;;;;;;;20.96;43.74;101031.42;106488;1285;59456;-84
2023/01/11 09:23:08;;;;;;;;;;;;;;;20.98;43.67;101020.56;106475;1285;60553;-83
2023/01/11 09:25:34;;;;;;;;;;;;;;;20.98;43.69;101021.59;106581;1284;59216;-84
2023/01/11 09:28:00;;;;;;;;;;;;;;;20.99;43.70;101026.05;106598;1285;59511;-84
2023/01/11 09:30:25;;;;;;;;;;;;;;;21.00;43.60;101030.42;106659;1284;59422;-84
2023/01/11 09:32:51;;;;;;;;;;;;;;;21.01;43.54;101027.65;106634;1284;73381;-84
2023/01/11 09:35:18;;;;;;;;;;;;;;;21.02;43.47;101034.41;106537;1284;59406;-83
2023/01/11 09:37:51;;;;;;;;;;;;;;;21.04;43.48;101033.19;106479;1285;60128;-83
2023/01/11 09:40:20;;;;;;;;;;;;;;;21.05;43.48;101031.69;106548;1285;62247;-84
2023/01/11 09:42:47;;;;;;;;;;;;;;;21.07;43.39;101033.72;106556;1284;72763;-83
2023/01/11 09:45:16;;;;;;;;;;;;;;;21.07;43.26;101039.26;106487;1285;74659;-83
2023/01/11 09:47:48;;;;;;;;;;;;;;;21.05;43.21;101031.30;106521;1284;59717;-83
2023/01/11 09:50:13;;;;;;;;;;;;;;;21.06;43.17;101034.86;106637;1283;59986;-83
2023/01/11 09:52:41;;;;;;;;;;;;;;;21.06;43.20;101040.90;106637;1284;59275;-84
2023/01/11 09:55:18;;;;;;;;;;;;;;;21.05;43.01;101042.94;106654;1284;74252;-84
2023/01/11 09:58:02;;;;;;;;;;;;;;;21.06;43.13;101043.06;106462;1285;60789;-84
2023/01/11 10:00:36;;;;;;;;;;;;;;;21.05;43.02;101049.19;106583;1284;60150;-84
2023/01/11 10:03:05;;;;;;;;;;;;;;;20.97;42.79;101050.28;106322;1283;73615;-84
2023/01/11 10:05:52;;;;;;;;;;;;;;;20.61;42.31;101058.02;106361;1285;74597;-84
2023/01/11 10:08:23;;;;;;;;;;;;;;;20.30;42.58;101063.59;106449;1284;60958;-83
2023/01/11 10:11:19;;;;;;;;;;;;;;;20.24;42.46;101067.16;106359;1285;61291;-83
2023/01/11 10:13:47;;;;;;;;;;;;;;;20.10;42.49;101063.37;106491;1284;72225;-83
2023/01/11 10:16:25;;;;;;;;;;;;;;;20.10;42.64;101068.76;106510;1285;75391;-82
2023/01/11 10:19:15;;;;;;;;;;;;;;;20.15;42.52;101074.86;106617;1284;59992;-84
2023/01/11 10:21:59;;;;;;;;;;;;;;;20.19;42.48;101081.76;106562;1284;59959;-83
2023/01/11 10:24:24;;;;;;;;;;;;;;;20.25;42.62;101090.50;106546;1284;72588;-84
2023/01/11 10:26:51;;;;;;;;;;;;;;;20.32;42.36;101096.70;106649;1284;60384;-83
2023/01/11 10:32:12;;;;;;;;;;;;;;;20.44;42.21;101102.89;106525;1285;60007;-83
2023/01/11 10:40:34;;;;;;;;;;;;;;;20.61;42.03;101110.54;106534;1285;61188;-83
2023/01/11 10:43:18;;;;;;;;;;;;;;;20.65;42.07;101111.20;106595;1284;60182;-84
2023/01/11 10:45:48;;;;;;;;;;;;;;;20.69;41.92;101098.14;106580;1285;73346;-84
2023/01/11 10:48:52;;;;;;;;;;;;;;;20.70;41.96;101096.05;106440;1284;74321;-82
2023/01/11 10:51:26;;;;;;;;;;;;;;;20.73;41.87;101096.79;105974;1290;60026;-83
2023/01/11 10:54:11;;;;;;;;;;;;;;;20.75;41.81;101098.29;105858;1293;60041;-84
2023/01/11 10:56:55;;;;;;;;;;;;;;;20.75;41.92;101093.58;105909;1290;72497;-84
2023/01/11 10:59:30;;;;;;;;;;;;;;;20.75;41.86;101091.27;105898;1290;74328;-83
2023/01/11 11:01:58;;;;;;;;;;;;;;;20.74;41.86;101088.09;105902;1290;60546;-83
2023/01/11 11:04:41;;;;;;;;;;;;;;;20.76;41.81;101093.38;105869;1290;60058;-84
2023/01/11 11:07:10;;;;;;;;;;;;;;;20.68;41.53;101099.20;105790;1290;71617;-84
2023/01/11 11:09:41;;;;;;;;;;;;;;;20.43;41.51;101101.89;105863;1290;74273;-83
2023/01/11 11:12:27;;;;;;;;;;;;;;;20.32;41.62;101109.88;105890;1290;60288;-84
2023/01/11 11:15:01;;;;;;;;;;;;;;;20.28;41.63;101104.45;105696;1290;60272;-84
2023/01/11 11:17:31;;;;;;;;;;;;;;;20.28;41.65;101113.56;105937;1290;72452;-84
2023/01/11 11:19:56;;;;;;;;;;;;;;;20.28;41.62;101116.59;105716;1291;74322;-85
2023/01/11 11:22:22;;;;;;;;;;;;;;;20.30;41.64;101125.74;106044;1285;59342;-84
2023/01/11 11:24:53;;;;;;;;;;;;;;;20.33;41.44;101126.29;106446;1285;59499;-82
2023/01/11 11:27:22;;;;;;;;;;;;;;;20.37;41.50;101131.05;106570;1284;73302;-82
2023/01/11 11:29:49;;;;;;;;;;;;;;;20.39;41.32;101132.34;106548;1284;75878;-83
2023/01/11 11:32:20;;;;;;;;;;;;;;;20.41;41.19;101134.52;106466;1283;59492;-83
2023/01/11 11:34:46;;;;;;;;;;;;;;;20.42;41.26;101130.85;106246;1286;59998;-83
2023/01/11 11:37:18;;;;;;;;;;;;;;;20.41;41.17;101134.70;106232;1285;71360;-83
2023/01/11 11:39:45;;;;;;;;;;;;;;;20.41;41.08;101137.40;106146;1284;74237;-84
2023/01/11 11:42:14;;;;;;;;;;;;;;;20.41;41.09;101136.85;106060;1285;59632;-84
2023/01/11 11:44:39;;;;;;;;;;;;;;;20.44;41.00;101137.94;106158;1284;61368;-84
2023/01/11 11:47:06;;;;;;;;;;;;;;;20.47;41.03;101139.71;106038;1285;59763;-83
2023/01/11 11:49:32;;;;;;;;;;;;;;;20.49;41.02;101140.27;106045;1285;60026;-84
2023/01/11 11:51:58;;;;;;;;;;;;;;;20.51;40.93;101136.74;106080;1284;59318;-84
2023/01/11 11:54:33;;;;;;;;;;;;;;;20.54;40.84;101141.21;106041;1284;59528;-84
2023/01/11 11:57:18;;;;;;;;;;;;;;;20.56;40.85;101148.80;106099;1284;72374;-83
2023/01/11 11:59:48;;;;;;;;;;;;;;;20.45;40.60;101147.67;105883;1285;75405;-83
2023/01/11 12:02:25;;;;;;;;;;;;;;;20.32;40.35;101154.23;106067;1284;59956;-82
2023/01/11 12:05:22;;;;;;;;;;;;;;;20.04;40.40;101156.86;106028;1285;60258;-85
2023/01/11 12:07:56;;;;;;;;;;;;;;;19.94;40.47;101153.86;105322;1293;74821;-84
2023/01/11 12:10:23;;;;;;;;;;;;;;;19.93;40.64;101150.71;105365;1292;61130;-85
2023/01/11 12:12:57;;;;;;;;;;;;;;;19.86;40.30;101151.47;105326;1296;59930;-83
2023/01/11 12:15:24;;;;;;;;;;;;;;;19.75;40.32;101143.74;105277;1292;60204;-83
2023/01/11 12:17:53;;;;;;;;;;;;;;;19.76;40.31;101144.77;105380;1294;73397;-83
2023/01/11 12:20:22;;;;;;;;;;;;;;;19.80;40.28;101149.70;105264;1296;60158;-82
2023/01/11 12:22:47;;;;;;;;;;;;;;;19.86;40.35;101152.56;105330;1291;60728;-83
2023/01/11 12:25:13;;;;;;;;;;;;;;;19.95;40.19;101151.35;105357;1293;59948;-83
2023/01/11 12:27:44;;;;;;;;;;;;;;;20.01;40.17;101153.98;105373;1293;61378;-82
2023/01/11 12:30:18;;;;;;;;;;;;;;;20.09;40.13;101163.15;105337;1292;74712;-83
2023/01/11 12:33:04;;;;;;;;;;;;;;;20.17;39.98;101167.32;105420;1294;62408;-83
2023/01/11 12:35:36;;;;;;;;;;;;;;;20.22;40.03;101161.08;105958;1292;60220;-82
2023/01/11 12:38:07;;;;;;;;;;;;;;;20.27;40.15;101158.33;105977;1291;72535;-83
2023/01/11 12:40:35;;;;;;;;;;;;;;;20.31;40.06;101158.09;105971;1291;74567;-83
2023/01/11 12:43:07;;;;;;;;;;;;;;;20.34;40.02;101165.38;105945;1291;60053;-83
2023/01/11 12:45:39;;;;;;;;;;;;;;;20.37;40.00;101166.05;106352;1284;60135;-83
2023/01/11 12:48:23;;;;;;;;;;;;;;;20.40;39.94;101169.80;105946;1285;72525;-83
2023/01/11 12:50:52;;;;;;;;;;;;;;;20.44;39.74;101167.27;105889;1285;74592;-84
2023/01/11 12:53:36;;;;;;;;;;;;;;;20.41;39.56;101172.41;106032;1284;61298;-84
2023/01/11 12:56:06;;;;;;;;;;;;;;;20.22;39.48;101174.71;106049;1283;60685;-84
2023/01/11 12:58:31;;;;;;;;;;;;;;;19.93;39.38;101180.55;105926;1285;72397;-84
2023/01/11 13:01:00;;;;;;;;;;;;;;;19.70;39.44;101179.77;106054;1285;61388;-83
2023/01/11 13:03:33;;;;;;;;;;;;;;;19.50;39.52;101187.50;106119;1285;61604;-83
2023/01/11 13:06:07;;;;;;;;;;;;;;;19.47;39.79;101184.52;106044;1285;61340;-83